sensor_id;sensor_type;location;lat;lon;timestamp;P1;durP1;ratioP1;P2;durP2;ratioP2
13891;SDS011;7016;48.172;8.058;2023-04-06T00:01:31;6.78;;;4.07;;
13891;SDS011;7016;48.172;8.058;2023-04-06T00:03:57;13.02;;;4.78;;
13891;SDS011;7016;48.172;8.058;2023-04-06T00:06:22;11.27;;;4.53;;
13891;SDS011;7016;48.172;8.058;2023-04-06T00:08:48;7.38;;;3.72;;
13891;SDS011;7016;48.172;8.058;2023-04-06T00:11:14;7.82;;;4.95;;
13891;SDS011;7016;48.172;8.058;2023-04-06T00:13:41;10.25;;;4.50;;
13891;SDS011;7016;48.172;8.058;2023-04-06T00:16:07;7.10;;;3.88;;
13891;SDS011;7016;48.172;8.058;2023-04-06T00:18:33;7.40;;;4.00;;
13891;SDS011;7016;48.172;8.058;2023-04-06T00:20:59;7.22;;;4.10;;
13891;SDS011;7016;48.172;8.058;2023-04-06T00:23:25;11.82;;;3.78;;
13891;SDS011;7016;48.172;8.058;2023-04-06T00:25:51;7.70;;;4.10;;
13891;SDS011;7016;48.172;8.058;2023-04-06T00:28:17;11.90;;;4.70;;
13891;SDS011;7016;48.172;8.058;2023-04-06T00:30:42;7.72;;;4.30;;
13891;SDS011;7016;48.172;8.058;2023-04-06T00:33:08;9.32;;;4.75;;
13891;SDS011;7016;48.172;8.058;2023-04-06T00:35:34;11.10;;;5.50;;
13891;SDS011;7016;48.172;8.058;2023-04-06T00:37:59;10.18;;;4.65;;
13891;SDS011;7016;48.172;8.058;2023-04-06T00:40:25;9.32;;;4.50;;
13891;SDS011;7016;48.172;8.058;2023-04-06T00:42:53;8.25;;;4.20;;
13891;SDS011;7016;48.172;8.058;2023-04-06T00:45:19;7.32;;;3.78;;
13891;SDS011;7016;48.172;8.058;2023-04-06T00:47:45;6.20;;;3.60;;
13891;SDS011;7016;48.172;8.058;2023-04-06T00:50:11;6.65;;;4.03;;
13891;SDS011;7016;48.172;8.058;2023-04-06T00:52:37;6.75;;;4.10;;
13891;SDS011;7016;48.172;8.058;2023-04-06T00:55:03;8.32;;;4.70;;
13891;SDS011;7016;48.172;8.058;2023-04-06T00:57:29;12.50;;;4.78;;
13891;SDS011;7016;48.172;8.058;2023-04-06T00:59:55;7.97;;;4.00;;
13891;SDS011;7016;48.172;8.058;2023-04-06T01:02:21;6.55;;;4.20;;
13891;SDS011;7016;48.172;8.058;2023-04-06T01:04:48;8.85;;;4.55;;
13891;SDS011;7016;48.172;8.058;2023-04-06T01:07:14;10.30;;;4.50;;
13891;SDS011;7016;48.172;8.058;2023-04-06T01:09:39;7.93;;;4.35;;
13891;SDS011;7016;48.172;8.058;2023-04-06T01:12:06;6.35;;;4.20;;
13891;SDS011;7016;48.172;8.058;2023-04-06T01:14:32;9.55;;;4.20;;
13891;SDS011;7016;48.172;8.058;2023-04-06T01:16:58;13.90;;;6.00;;
13891;SDS011;7016;48.172;8.058;2023-04-06T01:19:25;11.13;;;4.80;;
13891;SDS011;7016;48.172;8.058;2023-04-06T01:21:51;9.80;;;5.38;;
13891;SDS011;7016;48.172;8.058;2023-04-06T01:24:18;12.40;;;5.32;;
13891;SDS011;7016;48.172;8.058;2023-04-06T01:26:44;7.38;;;4.03;;
13891;SDS011;7016;48.172;8.058;2023-04-06T01:29:10;9.00;;;4.63;;
13891;SDS011;7016;48.172;8.058;2023-04-06T01:31:36;10.25;;;4.25;;
13891;SDS011;7016;48.172;8.058;2023-04-06T01:34:03;6.78;;;4.25;;
13891;SDS011;7016;48.172;8.058;2023-04-06T01:36:37;8.60;;;4.32;;
13891;SDS011;7016;48.172;8.058;2023-04-06T01:39:03;11.55;;;4.78;;
13891;SDS011;7016;48.172;8.058;2023-04-06T01:41:29;6.68;;;4.07;;
13891;SDS011;7016;48.172;8.058;2023-04-06T01:43:54;7.03;;;4.38;;
13891;SDS011;7016;48.172;8.058;2023-04-06T01:46:20;9.93;;;4.43;;
13891;SDS011;7016;48.172;8.058;2023-04-06T01:48:46;9.30;;;4.65;;
13891;SDS011;7016;48.172;8.058;2023-04-06T01:51:11;9.90;;;4.70;;
13891;SDS011;7016;48.172;8.058;2023-04-06T01:53:40;6.90;;;4.60;;
13891;SDS011;7016;48.172;8.058;2023-04-06T01:56:06;8.82;;;5.03;;
13891;SDS011;7016;48.172;8.058;2023-04-06T01:58:32;10.82;;;5.22;;
13891;SDS011;7016;48.172;8.058;2023-04-06T02:00:57;7.40;;;4.13;;
13891;SDS011;7016;48.172;8.058;2023-04-06T02:03:23;8.63;;;5.03;;
13891;SDS011;7016;48.172;8.058;2023-04-06T02:05:49;10.07;;;5.38;;
13891;SDS011;7016;48.172;8.058;2023-04-06T02:08:15;10.93;;;5.10;;
13891;SDS011;7016;48.172;8.058;2023-04-06T02:10:40;10.77;;;4.78;;
13891;SDS011;7016;48.172;8.058;2023-04-06T02:13:06;8.95;;;4.35;;
13891;SDS011;7016;48.172;8.058;2023-04-06T02:15:32;6.35;;;4.40;;
13891;SDS011;7016;48.172;8.058;2023-04-06T02:17:58;9.35;;;4.88;;
13891;SDS011;7016;48.172;8.058;2023-04-06T02:20:24;11.65;;;4.72;;
13891;SDS011;7016;48.172;8.058;2023-04-06T02:22:50;7.53;;;4.47;;
13891;SDS011;7016;48.172;8.058;2023-04-06T02:25:16;8.15;;;4.88;;
13891;SDS011;7016;48.172;8.058;2023-04-06T02:27:42;16.33;;;6.03;;
13891;SDS011;7016;48.172;8.058;2023-04-06T02:30:07;10.75;;;5.47;;
13891;SDS011;7016;48.172;8.058;2023-04-06T02:32:33;10.35;;;5.22;;
13891;SDS011;7016;48.172;8.058;2023-04-06T02:34:59;8.40;;;5.00;;
13891;SDS011;7016;48.172;8.058;2023-04-06T02:37:25;10.38;;;5.45;;
13891;SDS011;7016;48.172;8.058;2023-04-06T02:39:51;7.88;;;4.75;;
13891;SDS011;7016;48.172;8.058;2023-04-06T02:42:17;9.32;;;5.00;;
13891;SDS011;7016;48.172;8.058;2023-04-06T02:44:42;11.32;;;5.05;;
13891;SDS011;7016;48.172;8.058;2023-04-06T02:47:08;8.90;;;4.97;;
13891;SDS011;7016;48.172;8.058;2023-04-06T02:49:34;9.13;;;4.32;;
13891;SDS011;7016;48.172;8.058;2023-04-06T02:52:00;7.93;;;4.68;;
13891;SDS011;7016;48.172;8.058;2023-04-06T02:54:26;12.50;;;4.75;;
13891;SDS011;7016;48.172;8.058;2023-04-06T02:56:52;8.27;;;4.60;;
13891;SDS011;7016;48.172;8.058;2023-04-06T02:59:18;9.00;;;4.78;;
13891;SDS011;7016;48.172;8.058;2023-04-06T03:01:43;9.07;;;5.10;;
13891;SDS011;7016;48.172;8.058;2023-04-06T03:04:09;7.35;;;4.70;;
13891;SDS011;7016;48.172;8.058;2023-04-06T03:06:35;8.48;;;4.57;;
13891;SDS011;7016;48.172;8.058;2023-04-06T03:09:01;7.20;;;4.50;;
13891;SDS011;7016;48.172;8.058;2023-04-06T03:11:27;7.57;;;4.35;;
13891;SDS011;7016;48.172;8.058;2023-04-06T03:13:53;8.35;;;4.70;;
13891;SDS011;7016;48.172;8.058;2023-04-06T03:16:19;8.27;;;5.43;;
13891;SDS011;7016;48.172;8.058;2023-04-06T03:18:45;11.15;;;4.95;;
13891;SDS011;7016;48.172;8.058;2023-04-06T03:21:12;10.50;;;5.68;;
13891;SDS011;7016;48.172;8.058;2023-04-06T03:23:40;9.68;;;5.40;;
13891;SDS011;7016;48.172;8.058;2023-04-06T03:26:06;8.43;;;4.93;;
13891;SDS011;7016;48.172;8.058;2023-04-06T03:28:32;12.45;;;5.75;;
13891;SDS011;7016;48.172;8.058;2023-04-06T03:30:58;9.52;;;5.40;;
13891;SDS011;7016;48.172;8.058;2023-04-06T03:33:23;7.45;;;5.30;;
13891;SDS011;7016;48.172;8.058;2023-04-06T03:35:52;8.70;;;5.63;;
13891;SDS011;7016;48.172;8.058;2023-04-06T03:38:18;11.82;;;5.47;;
13891;SDS011;7016;48.172;8.058;2023-04-06T03:40:44;8.02;;;4.80;;
13891;SDS011;7016;48.172;8.058;2023-04-06T03:43:10;9.63;;;4.88;;
13891;SDS011;7016;48.172;8.058;2023-04-06T03:45:35;11.45;;;5.10;;
13891;SDS011;7016;48.172;8.058;2023-04-06T03:48:01;11.70;;;5.28;;
13891;SDS011;7016;48.172;8.058;2023-04-06T03:50:27;10.18;;;5.45;;
13891;SDS011;7016;48.172;8.058;2023-04-06T03:52:52;10.93;;;5.07;;
13891;SDS011;7016;48.172;8.058;2023-04-06T03:55:18;9.38;;;5.07;;
13891;SDS011;7016;48.172;8.058;2023-04-06T03:57:44;7.90;;;4.80;;
13891;SDS011;7016;48.172;8.058;2023-04-06T04:00:10;9.60;;;5.22;;
13891;SDS011;7016;48.172;8.058;2023-04-06T04:02:36;10.75;;;5.15;;
13891;SDS011;7016;48.172;8.058;2023-04-06T04:05:02;9.00;;;5.10;;
13891;SDS011;7016;48.172;8.058;2023-04-06T04:07:28;7.70;;;4.60;;
13891;SDS011;7016;48.172;8.058;2023-04-06T04:09:53;7.70;;;5.07;;
13891;SDS011;7016;48.172;8.058;2023-04-06T04:12:19;10.52;;;5.35;;
13891;SDS011;7016;48.172;8.058;2023-04-06T04:14:45;9.95;;;5.32;;
13891;SDS011;7016;48.172;8.058;2023-04-06T04:17:11;13.18;;;5.72;;
13891;SDS011;7016;48.172;8.058;2023-04-06T04:19:36;9.45;;;5.70;;
13891;SDS011;7016;48.172;8.058;2023-04-06T04:22:02;10.15;;;5.35;;
13891;SDS011;7016;48.172;8.058;2023-04-06T04:24:31;10.73;;;4.70;;
13891;SDS011;7016;48.172;8.058;2023-04-06T04:26:57;7.70;;;5.35;;
13891;SDS011;7016;48.172;8.058;2023-04-06T04:29:23;7.35;;;4.90;;
13891;SDS011;7016;48.172;8.058;2023-04-06T04:31:49;11.35;;;5.88;;
13891;SDS011;7016;48.172;8.058;2023-04-06T04:34:15;13.38;;;6.00;;
13891;SDS011;7016;48.172;8.058;2023-04-06T04:36:41;10.00;;;5.53;;
13891;SDS011;7016;48.172;8.058;2023-04-06T04:39:07;10.52;;;5.60;;
13891;SDS011;7016;48.172;8.058;2023-04-06T04:41:33;9.93;;;5.38;;
13891;SDS011;7016;48.172;8.058;2023-04-06T04:43:59;8.65;;;5.03;;
13891;SDS011;7016;48.172;8.058;2023-04-06T04:46:24;7.68;;;5.22;;
13891;SDS011;7016;48.172;8.058;2023-04-06T04:48:50;10.35;;;5.28;;
13891;SDS011;7016;48.172;8.058;2023-04-06T04:51:16;25.77;;;13.43;;
13891;SDS011;7016;48.172;8.058;2023-04-06T04:53:41;7.72;;;5.07;;
13891;SDS011;7016;48.172;8.058;2023-04-06T04:56:07;7.57;;;5.00;;
13891;SDS011;7016;48.172;8.058;2023-04-06T04:58:33;11.48;;;6.68;;
13891;SDS011;7016;48.172;8.058;2023-04-06T05:00:58;11.57;;;6.20;;
13891;SDS011;7016;48.172;8.058;2023-04-06T05:03:24;20.80;;;10.30;;
13891;SDS011;7016;48.172;8.058;2023-04-06T05:05:51;16.20;;;7.15;;
13891;SDS011;7016;48.172;8.058;2023-04-06T05:08:17;13.80;;;6.40;;
13891;SDS011;7016;48.172;8.058;2023-04-06T05:10:43;7.35;;;4.90;;
13891;SDS011;7016;48.172;8.058;2023-04-06T05:13:10;10.90;;;4.95;;
13891;SDS011;7016;48.172;8.058;2023-04-06T05:15:36;13.20;;;5.68;;
13891;SDS011;7016;48.172;8.058;2023-04-06T05:18:05;12.80;;;6.32;;
13891;SDS011;7016;48.172;8.058;2023-04-06T05:20:31;12.93;;;7.10;;
13891;SDS011;7016;48.172;8.058;2023-04-06T05:22:57;12.73;;;6.65;;
13891;SDS011;7016;48.172;8.058;2023-04-06T05:25:22;11.73;;;6.63;;
13891;SDS011;7016;48.172;8.058;2023-04-06T05:27:48;11.52;;;5.78;;
13891;SDS011;7016;48.172;8.058;2023-04-06T05:30:14;10.65;;;5.13;;
13891;SDS011;7016;48.172;8.058;2023-04-06T05:32:40;11.93;;;5.95;;
13891;SDS011;7016;48.172;8.058;2023-04-06T05:35:06;9.15;;;5.45;;
13891;SDS011;7016;48.172;8.058;2023-04-06T05:37:32;7.85;;;5.20;;
13891;SDS011;7016;48.172;8.058;2023-04-06T05:39:57;9.43;;;5.32;;
13891;SDS011;7016;48.172;8.058;2023-04-06T05:42:23;8.73;;;5.53;;
13891;SDS011;7016;48.172;8.058;2023-04-06T05:44:49;13.93;;;6.40;;
13891;SDS011;7016;48.172;8.058;2023-04-06T05:47:14;18.63;;;6.88;;
13891;SDS011;7016;48.172;8.058;2023-04-06T05:49:43;10.02;;;6.20;;
13891;SDS011;7016;48.172;8.058;2023-04-06T05:52:09;10.75;;;6.10;;
13891;SDS011;7016;48.172;8.058;2023-04-06T05:54:36;11.85;;;4.93;;
13891;SDS011;7016;48.172;8.058;2023-04-06T05:57:02;11.15;;;5.28;;
13891;SDS011;7016;48.172;8.058;2023-04-06T05:59:30;8.35;;;5.57;;
13891;SDS011;7016;48.172;8.058;2023-04-06T06:01:56;13.63;;;6.70;;
13891;SDS011;7016;48.172;8.058;2023-04-06T06:04:22;12.10;;;7.35;;
13891;SDS011;7016;48.172;8.058;2023-04-06T06:06:47;11.13;;;7.32;;
13891;SDS011;7016;48.172;8.058;2023-04-06T06:09:13;10.40;;;6.43;;
13891;SDS011;7016;48.172;8.058;2023-04-06T06:11:39;8.85;;;5.57;;
13891;SDS011;7016;48.172;8.058;2023-04-06T06:14:05;12.65;;;5.18;;
13891;SDS011;7016;48.172;8.058;2023-04-06T06:16:31;8.63;;;5.40;;
13891;SDS011;7016;48.172;8.058;2023-04-06T06:18:57;8.02;;;5.72;;
13891;SDS011;7016;48.172;8.058;2023-04-06T06:21:23;14.48;;;5.78;;
13891;SDS011;7016;48.172;8.058;2023-04-06T06:23:49;12.20;;;6.55;;
13891;SDS011;7016;48.172;8.058;2023-04-06T06:26:15;9.77;;;5.72;;
13891;SDS011;7016;48.172;8.058;2023-04-06T06:28:41;15.98;;;8.23;;
13891;SDS011;7016;48.172;8.058;2023-04-06T06:31:07;17.95;;;10.02;;
13891;SDS011;7016;48.172;8.058;2023-04-06T06:33:32;18.90;;;10.70;;
13891;SDS011;7016;48.172;8.058;2023-04-06T06:35:58;12.75;;;5.63;;
13891;SDS011;7016;48.172;8.058;2023-04-06T06:38:24;8.32;;;5.20;;
13891;SDS011;7016;48.172;8.058;2023-04-06T06:40:50;12.95;;;5.47;;
13891;SDS011;7016;48.172;8.058;2023-04-06T06:43:16;10.52;;;5.13;;
13891;SDS011;7016;48.172;8.058;2023-04-06T06:45:41;9.45;;;5.57;;
13891;SDS011;7016;48.172;8.058;2023-04-06T06:48:07;10.52;;;6.35;;
13891;SDS011;7016;48.172;8.058;2023-04-06T06:50:34;9.77;;;5.22;;
13891;SDS011;7016;48.172;8.058;2023-04-06T06:53:00;10.10;;;6.07;;
13891;SDS011;7016;48.172;8.058;2023-04-06T06:55:26;12.82;;;6.55;;
13891;SDS011;7016;48.172;8.058;2023-04-06T06:57:52;8.13;;;5.47;;
13891;SDS011;7016;48.172;8.058;2023-04-06T07:00:18;9.77;;;5.97;;
13891;SDS011;7016;48.172;8.058;2023-04-06T07:02:46;9.00;;;5.43;;
13891;SDS011;7016;48.172;8.058;2023-04-06T07:05:12;11.32;;;6.00;;
13891;SDS011;7016;48.172;8.058;2023-04-06T07:07:38;9.80;;;5.78;;
13891;SDS011;7016;48.172;8.058;2023-04-06T07:10:03;10.60;;;5.95;;
13891;SDS011;7016;48.172;8.058;2023-04-06T07:12:30;10.65;;;5.90;;
13891;SDS011;7016;48.172;8.058;2023-04-06T07:14:55;14.13;;;7.35;;
13891;SDS011;7016;48.172;8.058;2023-04-06T07:17:21;12.63;;;7.10;;
13891;SDS011;7016;48.172;8.058;2023-04-06T07:19:47;16.50;;;8.70;;
13891;SDS011;7016;48.172;8.058;2023-04-06T07:22:12;17.95;;;8.77;;
13891;SDS011;7016;48.172;8.058;2023-04-06T07:24:38;18.73;;;9.00;;
13891;SDS011;7016;48.172;8.058;2023-04-06T07:27:04;19.80;;;8.90;;
13891;SDS011;7016;48.172;8.058;2023-04-06T07:29:30;15.05;;;9.02;;
13891;SDS011;7016;48.172;8.058;2023-04-06T07:31:56;21.58;;;9.27;;
13891;SDS011;7016;48.172;8.058;2023-04-06T07:34:27;18.67;;;8.57;;
13891;SDS011;7016;48.172;8.058;2023-04-06T07:36:53;16.55;;;8.65;;
13891;SDS011;7016;48.172;8.058;2023-04-06T07:39:25;13.82;;;7.53;;
13891;SDS011;7016;48.172;8.058;2023-04-06T07:41:52;14.80;;;7.93;;
13891;SDS011;7016;48.172;8.058;2023-04-06T07:44:18;17.08;;;7.20;;
13891;SDS011;7016;48.172;8.058;2023-04-06T07:46:43;16.30;;;7.50;;
13891;SDS011;7016;48.172;8.058;2023-04-06T07:49:09;13.10;;;7.00;;
13891;SDS011;7016;48.172;8.058;2023-04-06T07:51:36;15.15;;;7.00;;
13891;SDS011;7016;48.172;8.058;2023-04-06T07:54:02;16.13;;;7.00;;
13891;SDS011;7016;48.172;8.058;2023-04-06T07:56:28;13.80;;;6.93;;
13891;SDS011;7016;48.172;8.058;2023-04-06T07:58:54;13.20;;;6.32;;
13891;SDS011;7016;48.172;8.058;2023-04-06T08:01:21;12.00;;;6.28;;
13891;SDS011;7016;48.172;8.058;2023-04-06T08:03:47;14.93;;;6.60;;
13891;SDS011;7016;48.172;8.058;2023-04-06T08:06:13;9.57;;;6.15;;
13891;SDS011;7016;48.172;8.058;2023-04-06T08:08:40;12.00;;;6.20;;
13891;SDS011;7016;48.172;8.058;2023-04-06T08:11:06;10.55;;;6.45;;
13891;SDS011;7016;48.172;8.058;2023-04-06T08:13:31;11.15;;;6.20;;
13891;SDS011;7016;48.172;8.058;2023-04-06T08:15:58;10.88;;;5.53;;
13891;SDS011;7016;48.172;8.058;2023-04-06T08:18:24;12.52;;;5.82;;
13891;SDS011;7016;48.172;8.058;2023-04-06T08:20:50;10.02;;;4.90;;
13891;SDS011;7016;48.172;8.058;2023-04-06T08:23:16;9.32;;;5.20;;
13891;SDS011;7016;48.172;8.058;2023-04-06T08:25:43;11.93;;;5.07;;
13891;SDS011;7016;48.172;8.058;2023-04-06T08:28:09;11.90;;;5.90;;
13891;SDS011;7016;48.172;8.058;2023-04-06T08:30:35;14.10;;;5.30;;
13891;SDS011;7016;48.172;8.058;2023-04-06T08:33:02;10.00;;;4.95;;
13891;SDS011;7016;48.172;8.058;2023-04-06T08:35:27;14.07;;;4.72;;
13891;SDS011;7016;48.172;8.058;2023-04-06T08:37:53;11.23;;;5.00;;
13891;SDS011;7016;48.172;8.058;2023-04-06T08:40:19;9.35;;;4.47;;
13891;SDS011;7016;48.172;8.058;2023-04-06T08:46:09;9.55;;;4.75;;
13891;SDS011;7016;48.172;8.058;2023-04-06T08:48:36;11.07;;;4.95;;
13891;SDS011;7016;48.172;8.058;2023-04-06T08:51:04;7.25;;;4.68;;
13891;SDS011;7016;48.172;8.058;2023-04-06T08:53:31;12.15;;;5.10;;
13891;SDS011;7016;48.172;8.058;2023-04-06T08:55:56;12.38;;;5.32;;
13891;SDS011;7016;48.172;8.058;2023-04-06T08:58:23;10.73;;;5.57;;
13891;SDS011;7016;48.172;8.058;2023-04-06T09:00:50;14.95;;;5.38;;
13891;SDS011;7016;48.172;8.058;2023-04-06T09:03:17;21.10;;;10.05;;
13891;SDS011;7016;48.172;8.058;2023-04-06T09:05:44;11.73;;;5.47;;
13891;SDS011;7016;48.172;8.058;2023-04-06T09:08:11;9.38;;;5.68;;
13891;SDS011;7016;48.172;8.058;2023-04-06T09:10:40;13.52;;;5.90;;
13891;SDS011;7016;48.172;8.058;2023-04-06T09:13:06;17.17;;;6.25;;
13891;SDS011;7016;48.172;8.058;2023-04-06T09:15:32;9.30;;;5.60;;
13891;SDS011;7016;48.172;8.058;2023-04-06T09:17:58;11.02;;;5.75;;
13891;SDS011;7016;48.172;8.058;2023-04-06T09:20:24;12.80;;;5.70;;
13891;SDS011;7016;48.172;8.058;2023-04-06T09:22:52;14.40;;;5.78;;
13891;SDS011;7016;48.172;8.058;2023-04-06T09:25:19;9.82;;;5.97;;
13891;SDS011;7016;48.172;8.058;2023-04-06T09:27:47;9.35;;;5.93;;
13891;SDS011;7016;48.172;8.058;2023-04-06T09:30:14;10.88;;;6.05;;
13891;SDS011;7016;48.172;8.058;2023-04-06T09:32:48;14.50;;;6.38;;
13891;SDS011;7016;48.172;8.058;2023-04-06T09:35:15;13.95;;;6.45;;
13891;SDS011;7016;48.172;8.058;2023-04-06T09:37:46;10.90;;;6.13;;
13891;SDS011;7016;48.172;8.058;2023-04-06T09:40:15;10.85;;;6.30;;
13891;SDS011;7016;48.172;8.058;2023-04-06T09:42:45;14.45;;;6.47;;
13891;SDS011;7016;48.172;8.058;2023-04-06T09:45:12;10.05;;;5.95;;
13891;SDS011;7016;48.172;8.058;2023-04-06T09:47:39;11.70;;;6.07;;
13891;SDS011;7016;48.172;8.058;2023-04-06T09:50:08;10.23;;;5.63;;
13891;SDS011;7016;48.172;8.058;2023-04-06T09:52:37;8.57;;;5.30;;
13891;SDS011;7016;48.172;8.058;2023-04-06T09:55:07;10.65;;;5.70;;
13891;SDS011;7016;48.172;8.058;2023-04-06T10:00:12;11.23;;;4.80;;
13891;SDS011;7016;48.172;8.058;2023-04-06T10:02:45;8.77;;;4.97;;
13891;SDS011;7016;48.172;8.058;2023-04-06T10:05:34;10.93;;;5.30;;
13891;SDS011;7016;48.172;8.058;2023-04-06T10:08:10;10.15;;;5.65;;
13891;SDS011;7016;48.172;8.058;2023-04-06T10:10:37;9.18;;;5.47;;
13891;SDS011;7016;48.172;8.058;2023-04-06T10:13:06;11.55;;;6.95;;
13891;SDS011;7016;48.172;8.058;2023-04-06T10:15:32;12.15;;;6.72;;
13891;SDS011;7016;48.172;8.058;2023-04-06T10:17:59;14.00;;;6.32;;
13891;SDS011;7016;48.172;8.058;2023-04-06T10:23:13;13.02;;;7.18;;
13891;SDS011;7016;48.172;8.058;2023-04-06T10:25:55;12.43;;;7.43;;
13891;SDS011;7016;48.172;8.058;2023-04-06T10:28:22;16.70;;;7.60;;
13891;SDS011;7016;48.172;8.058;2023-04-06T10:30:48;16.33;;;7.78;;
13891;SDS011;7016;48.172;8.058;2023-04-06T10:35:43;14.23;;;8.20;;
13891;SDS011;7016;48.172;8.058;2023-04-06T10:38:09;17.02;;;7.97;;
13891;SDS011;7016;48.172;8.058;2023-04-06T10:40:39;14.57;;;7.32;;
13891;SDS011;7016;48.172;8.058;2023-04-06T10:43:12;14.48;;;7.95;;
13891;SDS011;7016;48.172;8.058;2023-04-06T10:45:43;15.50;;;8.15;;
13891;SDS011;7016;48.172;8.058;2023-04-06T10:48:15;17.92;;;8.35;;
13891;SDS011;7016;48.172;8.058;2023-04-06T10:50:47;13.82;;;6.80;;
13891;SDS011;7016;48.172;8.058;2023-04-06T10:53:47;13.73;;;6.53;;
13891;SDS011;7016;48.172;8.058;2023-04-06T10:56:10;13.60;;;7.38;;
13891;SDS011;7016;48.172;8.058;2023-04-06T10:58:37;9.93;;;6.20;;
13891;SDS011;7016;48.172;8.058;2023-04-06T11:01:03;11.85;;;6.20;;
13891;SDS011;7016;48.172;8.058;2023-04-06T11:03:28;14.77;;;6.63;;
13891;SDS011;7016;48.172;8.058;2023-04-06T11:05:54;14.40;;;6.93;;
13891;SDS011;7016;48.172;8.058;2023-04-06T11:08:30;15.23;;;7.18;;
13891;SDS011;7016;48.172;8.058;2023-04-06T11:11:07;11.75;;;6.40;;
13891;SDS011;7016;48.172;8.058;2023-04-06T11:16:18;12.07;;;6.43;;
13891;SDS011;7016;48.172;8.058;2023-04-06T11:21:36;9.95;;;5.70;;
13891;SDS011;7016;48.172;8.058;2023-04-06T11:24:12;14.02;;;6.35;;
13891;SDS011;7016;48.172;8.058;2023-04-06T11:26:41;11.30;;;5.90;;
13891;SDS011;7016;48.172;8.058;2023-04-06T11:29:08;11.55;;;5.25;;
13891;SDS011;7016;48.172;8.058;2023-04-06T11:31:39;9.32;;;5.60;;
13891;SDS011;7016;48.172;8.058;2023-04-06T11:34:18;9.38;;;5.70;;
13891;SDS011;7016;48.172;8.058;2023-04-06T11:36:46;11.98;;;5.85;;
13891;SDS011;7016;48.172;8.058;2023-04-06T11:39:13;16.90;;;6.75;;
13891;SDS011;7016;48.172;8.058;2023-04-06T11:41:47;10.13;;;5.43;;
13891;SDS011;7016;48.172;8.058;2023-04-06T11:44:14;10.05;;;5.93;;
13891;SDS011;7016;48.172;8.058;2023-04-06T11:46:40;10.70;;;5.70;;
13891;SDS011;7016;48.172;8.058;2023-04-06T11:49:05;10.88;;;5.85;;
13891;SDS011;7016;48.172;8.058;2023-04-06T11:51:34;11.75;;;5.47;;
13891;SDS011;7016;48.172;8.058;2023-04-06T11:54:01;10.30;;;5.05;;
13891;SDS011;7016;48.172;8.058;2023-04-06T11:56:27;12.20;;;5.93;;
13891;SDS011;7016;48.172;8.058;2023-04-06T11:58:54;10.57;;;5.55;;
13891;SDS011;7016;48.172;8.058;2023-04-06T12:01:21;8.68;;;5.32;;
13891;SDS011;7016;48.172;8.058;2023-04-06T12:03:48;9.18;;;4.82;;
13891;SDS011;7016;48.172;8.058;2023-04-06T12:06:14;11.82;;;5.07;;
13891;SDS011;7016;48.172;8.058;2023-04-06T12:08:40;13.05;;;5.63;;
13891;SDS011;7016;48.172;8.058;2023-04-06T12:11:06;9.45;;;5.18;;
13891;SDS011;7016;48.172;8.058;2023-04-06T12:13:32;8.95;;;4.82;;
13891;SDS011;7016;48.172;8.058;2023-04-06T12:15:57;8.48;;;4.75;;
13891;SDS011;7016;48.172;8.058;2023-04-06T12:18:23;8.00;;;4.82;;
13891;SDS011;7016;48.172;8.058;2023-04-06T12:20:49;10.13;;;4.72;;
13891;SDS011;7016;48.172;8.058;2023-04-06T12:23:15;9.15;;;4.40;;
13891;SDS011;7016;48.172;8.058;2023-04-06T12:25:41;10.45;;;5.53;;
13891;SDS011;7016;48.172;8.058;2023-04-06T12:28:07;10.43;;;5.60;;
13891;SDS011;7016;48.172;8.058;2023-04-06T12:30:36;10.13;;;4.80;;
13891;SDS011;7016;48.172;8.058;2023-04-06T12:33:02;9.75;;;4.68;;
13891;SDS011;7016;48.172;8.058;2023-04-06T12:35:28;11.20;;;5.20;;
13891;SDS011;7016;48.172;8.058;2023-04-06T12:37:54;9.63;;;4.43;;
13891;SDS011;7016;48.172;8.058;2023-04-06T12:40:20;13.13;;;4.80;;
13891;SDS011;7016;48.172;8.058;2023-04-06T12:42:46;9.07;;;4.97;;
13891;SDS011;7016;48.172;8.058;2023-04-06T12:45:11;7.18;;;4.82;;
13891;SDS011;7016;48.172;8.058;2023-04-06T12:47:37;7.68;;;4.60;;
13891;SDS011;7016;48.172;8.058;2023-04-06T12:50:04;7.85;;;4.75;;
13891;SDS011;7016;48.172;8.058;2023-04-06T12:52:33;12.60;;;5.97;;
13891;SDS011;7016;48.172;8.058;2023-04-06T12:55:00;10.75;;;5.43;;
13891;SDS011;7016;48.172;8.058;2023-04-06T12:57:27;12.30;;;6.72;;
13891;SDS011;7016;48.172;8.058;2023-04-06T12:59:53;17.08;;;7.40;;
13891;SDS011;7016;48.172;8.058;2023-04-06T13:02:18;12.10;;;6.30;;
13891;SDS011;7016;48.172;8.058;2023-04-06T13:04:48;14.00;;;6.60;;
13891;SDS011;7016;48.172;8.058;2023-04-06T13:07:14;11.15;;;6.10;;
13891;SDS011;7016;48.172;8.058;2023-04-06T13:09:40;10.48;;;5.65;;
13891;SDS011;7016;48.172;8.058;2023-04-06T13:12:05;9.27;;;5.78;;
13891;SDS011;7016;48.172;8.058;2023-04-06T13:14:31;8.85;;;4.88;;
13891;SDS011;7016;48.172;8.058;2023-04-06T13:16:57;10.57;;;5.35;;
13891;SDS011;7016;48.172;8.058;2023-04-06T13:19:23;11.40;;;5.50;;
13891;SDS011;7016;48.172;8.058;2023-04-06T13:21:50;9.95;;;5.50;;
13891;SDS011;7016;48.172;8.058;2023-04-06T13:24:16;11.05;;;5.30;;
13891;SDS011;7016;48.172;8.058;2023-04-06T13:26:41;8.30;;;5.25;;
13891;SDS011;7016;48.172;8.058;2023-04-06T13:29:07;13.32;;;5.32;;
13891;SDS011;7016;48.172;8.058;2023-04-06T13:31:33;8.98;;;5.55;;
13891;SDS011;7016;48.172;8.058;2023-04-06T13:33:58;10.80;;;5.50;;
13891;SDS011;7016;48.172;8.058;2023-04-06T13:36:25;12.63;;;6.50;;
13891;SDS011;7016;48.172;8.058;2023-04-06T13:38:51;8.82;;;5.50;;
13891;SDS011;7016;48.172;8.058;2023-04-06T13:41:20;10.15;;;5.57;;
13891;SDS011;7016;48.172;8.058;2023-04-06T13:43:47;9.23;;;5.57;;
13891;SDS011;7016;48.172;8.058;2023-04-06T13:46:13;9.65;;;5.72;;
13891;SDS011;7016;48.172;8.058;2023-04-06T13:48:38;8.75;;;5.15;;
13891;SDS011;7016;48.172;8.058;2023-04-06T13:51:08;10.82;;;6.43;;
13891;SDS011;7016;48.172;8.058;2023-04-06T13:53:37;11.23;;;6.13;;
13891;SDS011;7016;48.172;8.058;2023-04-06T13:56:03;11.55;;;6.10;;
13891;SDS011;7016;48.172;8.058;2023-04-06T13:58:30;11.25;;;6.13;;
13891;SDS011;7016;48.172;8.058;2023-04-06T14:01:01;9.68;;;6.20;;
13891;SDS011;7016;48.172;8.058;2023-04-06T14:03:31;10.13;;;5.93;;
13891;SDS011;7016;48.172;8.058;2023-04-06T14:05:57;11.02;;;6.07;;
13891;SDS011;7016;48.172;8.058;2023-04-06T14:08:22;13.25;;;6.63;;
13891;SDS011;7016;48.172;8.058;2023-04-06T14:10:48;13.00;;;6.00;;
13891;SDS011;7016;48.172;8.058;2023-04-06T14:13:14;10.18;;;6.28;;
13891;SDS011;7016;48.172;8.058;2023-04-06T14:15:40;14.23;;;7.10;;
13891;SDS011;7016;48.172;8.058;2023-04-06T14:18:07;11.50;;;7.10;;
13891;SDS011;7016;48.172;8.058;2023-04-06T14:20:33;11.65;;;6.72;;
13891;SDS011;7016;48.172;8.058;2023-04-06T14:23:02;11.82;;;6.53;;
13891;SDS011;7016;48.172;8.058;2023-04-06T14:25:29;11.85;;;5.43;;
13891;SDS011;7016;48.172;8.058;2023-04-06T14:27:57;13.40;;;6.97;;
13891;SDS011;7016;48.172;8.058;2023-04-06T14:30:22;10.45;;;5.97;;
13891;SDS011;7016;48.172;8.058;2023-04-06T14:32:48;13.55;;;6.18;;
13891;SDS011;7016;48.172;8.058;2023-04-06T14:35:14;14.13;;;6.00;;
13891;SDS011;7016;48.172;8.058;2023-04-06T14:37:39;12.60;;;6.72;;
13891;SDS011;7016;48.172;8.058;2023-04-06T14:40:05;14.30;;;7.00;;
13891;SDS011;7016;48.172;8.058;2023-04-06T14:42:32;11.85;;;6.32;;
13891;SDS011;7016;48.172;8.058;2023-04-06T14:44:58;11.43;;;5.97;;
13891;SDS011;7016;48.172;8.058;2023-04-06T14:47:24;13.05;;;6.68;;
13891;SDS011;7016;48.172;8.058;2023-04-06T14:49:50;10.52;;;6.68;;
13891;SDS011;7016;48.172;8.058;2023-04-06T14:52:17;11.50;;;6.50;;
13891;SDS011;7016;48.172;8.058;2023-04-06T14:54:43;10.07;;;5.93;;
13891;SDS011;7016;48.172;8.058;2023-04-06T14:57:08;9.57;;;5.07;;
13891;SDS011;7016;48.172;8.058;2023-04-06T14:59:34;12.07;;;7.30;;
13891;SDS011;7016;48.172;8.058;2023-04-06T15:02:01;17.15;;;6.80;;
13891;SDS011;7016;48.172;8.058;2023-04-06T15:04:28;15.45;;;7.30;;
13891;SDS011;7016;48.172;8.058;2023-04-06T15:06:54;10.32;;;6.13;;